createdAt,value
2023-05-11T00:01:05.046Z,10.60
2023-05-11T00:03:33.083Z,11.15
2023-05-11T00:06:00.643Z,10.27
2023-05-11T00:08:27.518Z,11.52
2023-05-11T00:10:54.893Z,11.05
2023-05-11T00:13:21.699Z,12.20
2023-05-11T00:15:49.025Z,10.52
2023-05-11T00:18:16.300Z,10.82
2023-05-11T00:20:43.362Z,11.48
2023-05-11T00:23:10.648Z,11.68
2023-05-11T00:25:39.093Z,11.18
2023-05-11T00:28:06.811Z,11.93
2023-05-11T00:30:34.076Z,12.20
2023-05-11T00:33:01.663Z,11.70
2023-05-11T00:35:29.053Z,11.38
2023-05-11T00:37:57.178Z,11.85
2023-05-11T00:40:24.377Z,12.98
2023-05-11T00:42:51.527Z,11.77
2023-05-11T00:45:18.849Z,10.52
2023-05-11T00:47:46.217Z,13.30
2023-05-11T00:50:13.445Z,12.20
2023-05-11T00:52:42.688Z,11.30
2023-05-11T00:55:10.745Z,11.60
2023-05-11T00:57:39.078Z,12.55
2023-05-11T01:00:07.286Z,12.05
2023-05-11T01:02:34.855Z,12.70
2023-05-11T01:05:02.214Z,12.35
2023-05-11T01:07:34.837Z,12.88
2023-05-11T01:10:06.521Z,12.80
2023-05-11T01:12:46.431Z,12.90
2023-05-11T01:15:20.358Z,11.80
2023-05-11T01:17:56.978Z,12.80
2023-05-11T01:20:28.055Z,12.70
2023-05-11T01:23:15.566Z,12.90
2023-05-11T01:25:57.451Z,13.48
2023-05-11T01:28:30.774Z,13.43
2023-05-11T01:31:01.063Z,13.98
2023-05-11T01:33:32.748Z,12.23
2023-05-11T01:36:04.330Z,13.15
2023-05-11T01:38:36.209Z,12.85
2023-05-11T01:41:09.460Z,12.70
2023-05-11T01:43:37.750Z,13.32
2023-05-11T01:46:07.609Z,13.85
2023-05-11T01:48:39.337Z,12.90
2023-05-11T01:51:07.063Z,12.32
2023-05-11T01:53:36.406Z,13.32
2023-05-11T01:56:05.445Z,12.55
2023-05-11T01:58:33.552Z,13.43
2023-05-11T02:01:03.283Z,12.52
2023-05-11T02:03:31.984Z,13.23
2023-05-11T02:05:59.765Z,12.75
2023-05-11T02:08:27.972Z,12.70
2023-05-11T02:10:55.358Z,12.75
2023-05-11T02:13:23.200Z,13.13
2023-05-11T02:15:53.775Z,11.93
2023-05-11T02:18:21.885Z,12.05
2023-05-11T02:20:57.082Z,11.73
2023-05-11T02:23:26.281Z,11.27
2023-05-11T02:25:53.726Z,12.02
2023-05-11T02:28:21.770Z,11.88
2023-05-11T02:30:50.681Z,12.35
2023-05-11T02:33:23.107Z,12.27
2023-05-11T02:35:52.430Z,12.60
2023-05-11T02:38:20.265Z,12.45
2023-05-11T02:40:49.106Z,12.43
2023-05-11T02:43:23.382Z,11.63
2023-05-11T02:45:59.985Z,10.93
2023-05-11T02:48:33.116Z,12.35
2023-05-11T02:51:03.186Z,11.73
2023-05-11T02:53:36.269Z,11.70
2023-05-11T02:56:04.034Z,11.50
2023-05-11T02:58:33.827Z,11.75
2023-05-11T03:01:13.867Z,12.85
2023-05-11T03:03:41.669Z,12.63
2023-05-11T03:06:09.141Z,12.57
2023-05-11T03:08:37.569Z,12.45
2023-05-11T03:11:05.577Z,12.82
2023-05-11T03:13:35.712Z,13.00
2023-05-11T03:16:06.497Z,14.25
2023-05-11T03:18:34.892Z,15.52
2023-05-11T03:21:02.909Z,15.05
2023-05-11T03:23:30.970Z,14.57
2023-05-11T03:25:59.626Z,13.88
2023-05-11T03:28:27.826Z,14.15
2023-05-11T03:31:00.659Z,13.70
2023-05-11T03:33:30.596Z,14.65
2023-05-11T03:35:59.529Z,13.80
2023-05-11T03:38:28.663Z,13.95
2023-05-11T03:40:56.821Z,13.30
2023-05-11T03:43:27.522Z,14.05
2023-05-11T03:45:57.102Z,14.38
2023-05-11T03:48:25.575Z,14.10
2023-05-11T03:50:52.870Z,13.15
2023-05-11T03:53:20.210Z,13.98
2023-05-11T03:55:46.955Z,13.95
2023-05-11T03:58:14.397Z,13.63
2023-05-11T04:00:43.095Z,13.05
2023-05-11T04:03:10.480Z,14.65
2023-05-11T04:05:39.058Z,14.25
2023-05-11T04:08:09.762Z,13.75
2023-05-11T04:10:38.388Z,14.40
2023-05-11T04:13:05.637Z,14.70
2023-05-11T04:15:32.948Z,13.10
2023-05-11T04:18:00.230Z,13.30
2023-05-11T04:20:27.621Z,13.05
2023-05-11T04:22:54.980Z,13.13
2023-05-11T04:25:22.559Z,13.85
2023-05-11T04:27:49.809Z,11.57
2023-05-11T04:30:17.095Z,13.27
2023-05-11T04:32:44.550Z,13.32
2023-05-11T04:35:11.968Z,11.55
2023-05-11T04:37:40.106Z,12.73
2023-05-11T04:40:09.816Z,12.90
2023-05-11T04:42:40.668Z,13.40
2023-05-11T04:45:12.198Z,12.32
2023-05-11T04:47:39.997Z,13.75
2023-05-11T04:50:08.595Z,12.45
2023-05-11T04:52:36.421Z,13.30
2023-05-11T04:55:03.796Z,14.20
2023-05-11T04:57:31.208Z,13.55
2023-05-11T04:59:59.003Z,13.13
2023-05-11T05:02:26.559Z,12.88
2023-05-11T05:04:54.005Z,13.82
2023-05-11T05:07:21.295Z,13.70
2023-05-11T05:09:48.478Z,13.48
2023-05-11T05:12:16.140Z,13.02
2023-05-11T05:14:43.622Z,13.77
2023-05-11T05:17:10.523Z,13.60
2023-05-11T05:19:38.561Z,14.85
2023-05-11T05:22:06.226Z,12.70
2023-05-11T05:24:33.438Z,13.55
2023-05-11T05:27:00.664Z,13.07
2023-05-11T05:29:28.053Z,16.25
2023-05-11T05:31:55.597Z,14.43
2023-05-11T05:34:24.147Z,13.00
2023-05-11T05:36:51.349Z,12.02
2023-05-11T05:39:18.580Z,12.45
2023-05-11T05:41:45.727Z,11.77
2023-05-11T05:44:13.816Z,12.00
2023-05-11T05:46:41.180Z,12.60
2023-05-11T05:49:08.487Z,11.80
2023-05-11T05:51:37.633Z,12.55
2023-05-11T05:54:05.406Z,12.75
2023-05-11T05:56:34.904Z,11.95
2023-05-11T05:59:02.211Z,12.27
2023-05-11T06:01:29.676Z,12.18
2023-05-11T06:03:57.197Z,12.35
2023-05-11T06:06:25.250Z,11.50
2023-05-11T06:08:56.286Z,11.98
2023-05-11T06:13:52.111Z,11.73
2023-05-11T06:16:19.999Z,12.85
2023-05-11T06:18:47.478Z,12.88
2023-05-11T06:21:15.467Z,13.00
2023-05-11T06:23:42.761Z,12.80
2023-05-11T06:26:10.003Z,12.95
2023-05-11T06:28:37.377Z,12.93
2023-05-11T06:31:08.951Z,13.00
2023-05-11T06:33:37.638Z,13.80
2023-05-11T06:36:09.858Z,12.80
2023-05-11T06:38:37.030Z,13.23
2023-05-11T06:41:04.391Z,12.57
2023-05-11T06:43:31.283Z,13.65
2023-05-11T06:46:03.332Z,12.07
2023-05-11T06:48:30.827Z,13.82
2023-05-11T06:50:59.091Z,12.55
2023-05-11T06:53:26.345Z,12.95
2023-05-11T06:55:55.942Z,13.75
2023-05-11T06:58:28.865Z,13.18
2023-05-11T07:00:56.606Z,13.55
2023-05-11T07:03:23.920Z,12.68
2023-05-11T07:05:51.084Z,13.57
2023-05-11T07:08:18.335Z,13.68
2023-05-11T07:10:45.617Z,10.95
2023-05-11T07:13:13.196Z,10.15
2023-05-11T07:15:40.389Z,11.10
2023-05-11T07:18:07.633Z,11.68
2023-05-11T07:20:36.792Z,11.05
2023-05-11T07:23:03.995Z,10.82
2023-05-11T07:25:33.370Z,9.75
2023-05-11T07:28:00.481Z,10.90
2023-05-11T07:30:27.752Z,10.10
2023-05-11T07:32:55.054Z,9.98
2023-05-11T07:35:24.157Z,10.73
2023-05-11T07:37:51.605Z,11.32
2023-05-11T07:40:18.985Z,11.32
2023-05-11T07:42:46.591Z,9.43
2023-05-11T07:45:13.751Z,8.98
2023-05-11T07:47:41.298Z,8.20
2023-05-11T07:50:08.680Z,8.90
2023-05-11T07:52:35.903Z,8.65
2023-05-11T07:55:03.134Z,8.70
2023-05-11T07:57:30.324Z,9.52
2023-05-11T07:59:57.559Z,8.07
2023-05-11T08:02:25.390Z,8.23
2023-05-11T08:04:52.791Z,7.32
2023-05-11T08:07:20.297Z,7.32
2023-05-11T08:09:48.534Z,7.90
2023-05-11T08:12:16.300Z,7.35
2023-05-11T08:14:43.558Z,7.63
2023-05-11T08:17:10.916Z,7.22
2023-05-11T08:19:38.303Z,7.18
2023-05-11T08:22:05.440Z,6.65
2023-05-11T08:24:32.805Z,7.13
2023-05-11T08:27:00.062Z,6.45
2023-05-11T08:29:27.499Z,5.63
2023-05-11T08:31:55.554Z,5.13
2023-05-11T08:34:23.625Z,5.18
2023-05-11T08:36:51.870Z,4.85
2023-05-11T08:39:33.320Z,4.35
2023-05-11T08:42:10.267Z,4.63
2023-05-11T08:44:39.450Z,5.00
2023-05-11T08:47:22.079Z,3.97
2023-05-11T08:49:52.988Z,5.30
2023-05-11T08:52:20.548Z,4.82
2023-05-11T08:54:48.038Z,4.43
2023-05-11T08:57:15.474Z,4.72
2023-05-11T08:59:46.141Z,4.60
2023-05-11T09:02:20.297Z,5.00
2023-05-11T09:04:49.092Z,4.82
2023-05-11T09:07:17.929Z,5.47
2023-05-11T09:09:48.945Z,5.18
2023-05-11T09:12:16.859Z,5.35
2023-05-11T09:14:43.924Z,4.38
2023-05-11T09:17:11.154Z,6.20
2023-05-11T09:19:38.600Z,5.53
2023-05-11T09:22:06.619Z,5.55
2023-05-11T09:24:35.523Z,5.85
2023-05-11T09:27:09.863Z,5.32
2023-05-11T09:29:36.679Z,5.35
2023-05-11T09:32:06.659Z,5.03
2023-05-11T09:34:36.091Z,4.88
2023-05-11T09:37:03.458Z,5.53
2023-05-11T09:42:21.855Z,6.13
2023-05-11T09:44:52.882Z,6.78
2023-05-11T09:47:22.361Z,7.05
2023-05-11T09:52:17.561Z,6.78
2023-05-11T09:54:46.415Z,7.10
2023-05-11T09:57:28.023Z,6.47
2023-05-11T09:59:55.622Z,7.15
2023-05-11T10:02:32.970Z,6.60
2023-05-11T10:05:01.835Z,6.00
2023-05-11T10:07:29.034Z,6.50
2023-05-11T10:09:57.616Z,6.05
2023-05-11T10:12:26.151Z,6.05
2023-05-11T10:15:04.285Z,5.93
2023-05-11T10:17:31.732Z,5.65
2023-05-11T10:19:59.776Z,6.65
2023-05-11T10:22:27.783Z,10.43
2023-05-11T10:24:57.754Z,11.88
2023-05-11T10:27:25.621Z,11.73
2023-05-11T10:29:53.023Z,13.00
2023-05-11T10:32:20.821Z,13.57
2023-05-11T10:34:48.518Z,12.95
2023-05-11T10:37:16.721Z,12.90
2023-05-11T10:39:47.093Z,12.57
2023-05-11T10:42:52.836Z,11.55
2023-05-11T10:45:26.270Z,10.50
2023-05-11T10:48:26.977Z,9.88
2023-05-11T10:54:10.682Z,6.72
2023-05-11T10:56:54.910Z,5.47
2023-05-11T10:59:45.089Z,5.32
2023-05-11T11:02:12.526Z,5.47
2023-05-11T11:04:50.803Z,5.25
2023-05-11T11:07:19.662Z,6.13
2023-05-11T11:09:52.445Z,6.85
2023-05-11T11:12:20.657Z,7.47
2023-05-11T11:14:59.507Z,7.88
2023-05-11T11:17:32.431Z,7.70
2023-05-11T11:20:03.971Z,7.50
2023-05-11T11:22:38.194Z,7.32
2023-05-11T11:25:09.643Z,7.28
2023-05-11T11:27:45.373Z,7.90
2023-05-11T11:30:23.695Z,7.53
2023-05-11T11:33:15.173Z,6.50
2023-05-11T11:35:42.706Z,5.68
2023-05-11T11:38:20.500Z,5.63
2023-05-11T11:40:52.547Z,6.05
2023-05-11T11:43:23.516Z,6.15
2023-05-11T11:45:51.092Z,6.03
2023-05-11T11:48:31.263Z,5.63
2023-05-11T11:51:04.148Z,6.25
2023-05-11T11:53:40.956Z,6.20
2023-05-11T11:56:14.595Z,6.80
2023-05-11T11:58:41.895Z,6.35
2023-05-11T12:01:26.842Z,6.32
2023-05-11T12:04:34.276Z,6.35
2023-05-11T12:07:03.392Z,6.20
2023-05-11T12:09:30.684Z,6.57
2023-05-11T12:11:57.864Z,6.03
2023-05-11T12:14:26.147Z,6.30
2023-05-11T12:17:08.410Z,7.18
2023-05-11T12:19:36.270Z,6.32
2023-05-11T12:22:03.474Z,6.15
2023-05-11T12:24:30.849Z,6.88
2023-05-11T12:26:58.307Z,5.90
2023-05-11T12:29:25.900Z,5.78
2023-05-11T12:31:53.648Z,5.63
2023-05-11T12:34:27.061Z,5.75
2023-05-11T12:36:58.959Z,5.97
2023-05-11T12:39:28.131Z,6.05
2023-05-11T12:41:56.373Z,6.70
2023-05-11T12:44:27.762Z,5.93
2023-05-11T12:46:55.285Z,5.45
2023-05-11T12:49:27.193Z,4.55
2023-05-11T12:52:00.923Z,4.07
2023-05-11T12:54:33.590Z,4.35
2023-05-11T12:57:07.754Z,4.28
2023-05-11T12:59:41.529Z,4.82
2023-05-11T13:02:20.738Z,4.25
2023-05-11T13:04:48.389Z,4.38
2023-05-11T13:07:24.442Z,5.15
2023-05-11T13:10:01.062Z,5.28
2023-05-11T13:12:34.349Z,4.45
2023-05-11T13:15:32.378Z,4.82
2023-05-11T13:18:03.475Z,4.80
2023-05-11T13:20:32.709Z,5.20
2023-05-11T13:23:11.112Z,4.72
2023-05-11T13:25:57.504Z,5.60
2023-05-11T13:28:25.099Z,5.78
2023-05-11T13:30:58.870Z,6.05
2023-05-11T13:33:26.276Z,5.45
2023-05-11T13:35:53.125Z,5.63
2023-05-11T13:38:19.786Z,6.20
2023-05-11T13:40:46.938Z,5.55
2023-05-11T13:43:14.085Z,6.03
2023-05-11T13:45:41.682Z,6.18
2023-05-11T13:48:09.079Z,5.25
2023-05-11T13:50:36.295Z,4.93
2023-05-11T13:53:05.190Z,4.75
2023-05-11T13:55:32.307Z,5.00
2023-05-11T13:57:59.526Z,4.30
2023-05-11T14:00:26.841Z,4.88
2023-05-11T14:02:58.211Z,4.35
2023-05-11T14:05:25.555Z,4.50
2023-05-11T14:07:52.592Z,4.93
2023-05-11T14:10:19.859Z,5.10
2023-05-11T14:12:46.991Z,5.03
2023-05-11T14:15:13.732Z,4.50
2023-05-11T14:17:43.289Z,3.58
2023-05-11T14:20:14.764Z,3.40
2023-05-11T14:22:44.779Z,3.15
2023-05-11T14:27:39.248Z,2.92
2023-05-11T14:30:26.968Z,2.85
2023-05-11T14:32:54.946Z,3.17
2023-05-11T14:35:21.720Z,3.38
2023-05-11T14:37:55.508Z,4.05
2023-05-11T14:40:22.909Z,4.15
2023-05-11T14:42:50.031Z,4.47
2023-05-11T14:45:17.400Z,4.90
2023-05-11T14:47:44.794Z,4.75
2023-05-11T14:50:11.992Z,4.43
2023-05-11T14:52:39.104Z,4.53
2023-05-11T14:55:06.840Z,4.05
2023-05-11T14:57:33.929Z,3.83
2023-05-11T15:00:02.682Z,3.92
2023-05-11T15:02:29.952Z,4.53
2023-05-11T15:05:00.006Z,4.30
2023-05-11T15:07:27.335Z,4.38
2023-05-11T15:09:55.111Z,4.53
2023-05-11T15:12:22.382Z,5.10
2023-05-11T15:14:49.888Z,5.00
2023-05-11T15:17:17.120Z,5.55
2023-05-11T15:19:44.443Z,5.43
2023-05-11T15:22:11.603Z,5.40
2023-05-11T15:24:38.901Z,5.70
2023-05-11T15:27:05.886Z,5.80
2023-05-11T15:29:32.755Z,5.93
2023-05-11T15:31:59.931Z,5.63
2023-05-11T15:34:27.271Z,5.50
2023-05-11T15:36:54.563Z,5.32
2023-05-11T15:39:22.095Z,5.28
2023-05-11T15:41:49.446Z,5.28
2023-05-11T15:44:16.735Z,5.55
2023-05-11T15:46:44.006Z,5.63
2023-05-11T15:49:10.861Z,5.00
2023-05-11T15:51:40.963Z,5.82
2023-05-11T15:54:08.622Z,5.55
2023-05-11T15:56:35.458Z,4.85
2023-05-11T15:59:02.307Z,5.35
2023-05-11T16:01:29.602Z,4.95
2023-05-11T16:03:57.116Z,5.00
2023-05-11T16:06:24.552Z,4.90
2023-05-11T16:08:53.164Z,4.63
2023-05-11T16:11:20.380Z,4.38
2023-05-11T16:13:47.677Z,4.10
2023-05-11T16:16:14.640Z,3.58
2023-05-11T16:18:41.744Z,3.85
2023-05-11T16:21:08.729Z,2.97
2023-05-11T16:23:35.968Z,2.40
2023-05-11T16:26:03.171Z,2.53
2023-05-11T16:28:30.620Z,2.58
2023-05-11T16:30:59.293Z,2.50
2023-05-11T16:33:26.913Z,2.50
2023-05-11T16:35:57.521Z,2.72
2023-05-11T16:38:25.128Z,2.72
2023-05-11T16:40:52.323Z,3.70
2023-05-11T16:43:19.547Z,2.97
2023-05-11T16:45:46.966Z,2.78
2023-05-11T16:48:14.050Z,2.92
2023-05-11T16:50:41.183Z,2.30
2023-05-11T16:53:13.834Z,3.42
2023-05-11T16:55:41.729Z,3.78
2023-05-11T16:58:08.957Z,4.20
2023-05-11T17:00:36.612Z,4.40
2023-05-11T17:03:03.579Z,4.57
2023-05-11T17:05:31.014Z,4.45
2023-05-11T17:07:58.353Z,4.40
2023-05-11T17:10:25.588Z,3.78
2023-05-11T17:12:52.956Z,4.30
2023-05-11T17:15:20.073Z,4.00
2023-05-11T17:17:49.736Z,3.67
2023-05-11T17:20:17.587Z,3.35
2023-05-11T17:22:45.224Z,3.78
2023-05-11T17:25:12.652Z,2.33
2023-05-11T17:27:39.828Z,2.20
2023-05-11T17:30:07.713Z,2.97
2023-05-11T17:32:35.340Z,2.92
2023-05-11T17:35:04.062Z,3.10
2023-05-11T17:37:32.401Z,3.50
2023-05-11T17:40:01.124Z,4.25
2023-05-11T17:42:28.880Z,4.50
2023-05-11T17:44:56.314Z,5.10
2023-05-11T17:47:23.194Z,4.80
2023-05-11T17:49:50.613Z,4.82
2023-05-11T17:52:17.773Z,4.50
2023-05-11T17:54:44.878Z,5.10
2023-05-11T17:57:12.134Z,2.67
2023-05-11T17:59:39.334Z,2.17
2023-05-11T18:02:07.414Z,2.10
2023-05-11T18:04:34.329Z,1.80
2023-05-11T18:07:01.572Z,2.35
2023-05-11T18:09:28.743Z,2.33
2023-05-11T18:11:56.073Z,2.17
2023-05-11T18:14:23.250Z,2.33
2023-05-11T18:16:54.722Z,2.20
2023-05-11T18:19:21.506Z,1.65
2023-05-11T18:21:51.923Z,2.10
2023-05-11T18:24:19.429Z,2.50
2023-05-11T18:26:46.654Z,2.03
2023-05-11T18:29:15.420Z,2.35
2023-05-11T18:31:43.917Z,2.42
2023-05-11T18:34:12.190Z,2.75
2023-05-11T18:36:39.880Z,2.83
2023-05-11T18:39:07.248Z,2.50
2023-05-11T18:41:34.662Z,2.92
2023-05-11T18:44:03.035Z,3.90
2023-05-11T18:46:30.907Z,3.13
2023-05-11T18:48:57.770Z,4.10
2023-05-11T18:51:26.125Z,3.90
2023-05-11T18:53:59.449Z,3.75
2023-05-11T18:56:29.807Z,4.30
2023-05-11T18:58:57.095Z,4.00
2023-05-11T19:01:33.027Z,4.03
2023-05-11T19:04:03.795Z,4.10
2023-05-11T19:06:31.476Z,4.43
2023-05-11T19:08:58.613Z,4.70
2023-05-11T19:11:25.820Z,5.05
2023-05-11T19:13:53.122Z,5.20
2023-05-11T19:16:23.035Z,4.97
2023-05-11T19:18:50.508Z,4.60
2023-05-11T19:21:19.990Z,5.30
2023-05-11T19:23:48.237Z,4.95
2023-05-11T19:26:15.639Z,4.70
2023-05-11T19:28:42.747Z,4.78
2023-05-11T19:31:10.038Z,5.00
2023-05-11T19:33:55.032Z,5.70
2023-05-11T19:36:22.429Z,4.25
2023-05-11T19:38:51.686Z,5.15
2023-05-11T19:41:19.736Z,5.43
2023-05-11T19:43:46.543Z,4.82
2023-05-11T19:46:13.422Z,5.28
2023-05-11T19:48:40.864Z,4.72
2023-05-11T19:51:08.045Z,4.63
2023-05-11T19:53:35.267Z,4.53
2023-05-11T19:56:07.102Z,4.43
2023-05-11T19:58:34.344Z,5.10
2023-05-11T20:01:01.913Z,4.85
2023-05-11T20:03:29.362Z,5.10
2023-05-11T20:05:59.908Z,5.15
2023-05-11T20:08:29.424Z,4.85
2023-05-11T20:10:56.566Z,6.13
2023-05-11T20:13:24.012Z,4.93
2023-05-11T20:15:52.554Z,5.50
2023-05-11T20:18:20.111Z,4.80
2023-05-11T20:20:47.457Z,5.07
2023-05-11T20:23:14.613Z,5.20
2023-05-11T20:25:43.987Z,5.30
2023-05-11T20:28:14.386Z,5.25
2023-05-11T20:30:41.700Z,5.45
2023-05-11T20:38:06.919Z,5.50
2023-05-11T20:40:34.283Z,5.68
2023-05-11T20:43:02.196Z,5.40
2023-05-11T20:45:29.480Z,5.68
2023-05-11T20:47:56.841Z,5.53
2023-05-11T20:50:24.604Z,5.72
2023-05-11T20:52:51.846Z,5.60
2023-05-11T20:55:19.215Z,6.38
2023-05-11T20:57:46.799Z,5.70
2023-05-11T21:00:16.192Z,5.53
2023-05-11T21:02:43.560Z,6.38
2023-05-11T21:05:11.846Z,5.80
2023-05-11T21:07:39.065Z,5.85
2023-05-11T21:10:07.131Z,6.15
2023-05-11T21:12:34.548Z,5.72
2023-05-11T21:15:02.957Z,6.25
2023-05-11T21:17:32.310Z,5.93
2023-05-11T21:19:59.528Z,5.90
2023-05-11T21:22:29.729Z,6.28
2023-05-11T21:25:02.237Z,6.65
2023-05-11T21:27:31.796Z,6.75
2023-05-11T21:30:00.515Z,6.78
2023-05-11T21:32:28.188Z,7.05
2023-05-11T21:34:55.608Z,6.65
2023-05-11T21:37:23.068Z,6.95
2023-05-11T21:39:50.730Z,7.28
2023-05-11T21:42:18.125Z,7.10
2023-05-11T21:44:45.354Z,7.30
2023-05-11T21:47:12.529Z,7.20
2023-05-11T21:49:39.694Z,7.47
2023-05-11T21:52:07.041Z,6.35
2023-05-11T21:54:34.044Z,6.60
2023-05-11T21:57:01.262Z,6.97
2023-05-11T21:59:28.323Z,6.82
2023-05-11T22:01:57.255Z,6.82
2023-05-11T22:04:24.632Z,6.55
2023-05-11T22:06:51.981Z,6.60
2023-05-11T22:09:19.277Z,6.15
2023-05-11T22:11:47.833Z,6.70
2023-05-11T22:14:15.091Z,6.32
2023-05-11T22:16:42.361Z,5.57
2023-05-11T22:19:09.604Z,6.57
2023-05-11T22:21:36.444Z,6.13
2023-05-11T22:24:04.336Z,6.32
2023-05-11T22:26:31.584Z,6.80
2023-05-11T22:28:58.770Z,6.25
2023-05-11T22:31:26.959Z,6.93
2023-05-11T22:33:54.205Z,6.15
2023-05-11T22:36:21.557Z,5.93
2023-05-11T22:38:49.443Z,6.05
2023-05-11T22:41:16.797Z,5.60
2023-05-11T22:43:44.226Z,5.07
2023-05-11T22:46:11.555Z,5.20
2023-05-11T22:48:39.089Z,5.03
2023-05-11T22:51:06.476Z,4.60
2023-05-11T22:53:33.727Z,4.00
2023-05-11T22:56:05.004Z,4.85
2023-05-11T22:58:33.026Z,3.92
2023-05-11T23:01:00.170Z,4.13
2023-05-11T23:03:27.712Z,4.40
2023-05-11T23:05:55.644Z,3.75
2023-05-11T23:08:23.057Z,3.85
2023-05-11T23:10:52.676Z,4.10
2023-05-11T23:13:19.973Z,4.47
2023-05-11T23:15:47.212Z,3.65
2023-05-11T23:18:14.560Z,3.55
2023-05-11T23:20:41.837Z,3.42
2023-05-11T23:23:09.999Z,3.83
2023-05-11T23:25:37.226Z,3.50
2023-05-11T23:28:11.241Z,3.25
2023-05-11T23:30:38.437Z,3.33
2023-05-11T23:33:05.621Z,3.40
2023-05-11T23:35:32.859Z,3.47
2023-05-11T23:38:00.046Z,3.58
2023-05-11T23:40:28.439Z,2.95
2023-05-11T23:42:55.782Z,3.15
2023-05-11T23:45:23.456Z,2.92
2023-05-11T23:47:51.084Z,3.15
2023-05-11T23:50:18.688Z,2.92
2023-05-11T23:52:46.122Z,3.25
2023-05-11T23:55:13.367Z,3.20
2023-05-11T23:57:41.308Z,3.40
